This is the latest recevied weather packets stored in our database for station/object VE7GEL. If no packets are shown the sender has not sent any weather packets the latest 10 day(s).
| Time | Temp. | Humidity | Pressure | Rain* | Wind** | Luminosity | Snow |
|---|---|---|---|---|---|---|---|
| 1777764602 | 18.33° C | 63% | 1015.2 hPa | 0 mm | - | 732 W/m² | - |
| 1777764517 | 18.33° C | 64% | 1014.9 hPa | - | - | 741 W/m² | - |
| 1777764063 | 18.33° C | 64% | 1015.1 hPa | 0 mm | - | 760 W/m² | - |
| 1777763161 | 17.22° C | 71% | 1015.2 hPa | 0 mm | - | 809 W/m² | - |
| 1777762261 | 17.78° C | 70% | 1015.4 hPa | 0 mm | - | 852 W/m² | - |
| 1777761902 | 17.78° C | 69% | 1015.8 hPa | 0 mm | - | 870 W/m² | - |
| 1777761360 | 18.33° C | 70% | 1015.6 hPa | 0 mm | - | 891 W/m² | - |
| 1777760461 | 18.33° C | 61% | 1015.8 hPa | 0.51 mm | - | 859 W/m² | - |
| 1777760103 | 18.33° C | 63% | 1016.4 hPa | 0.51 mm | - | 100 W/m² | - |
| 1777759559 | 17.78° C | 67% | 1016 hPa | 0.51 mm | - | 971 W/m² | - |
| 1777758660 | 16.67° C | 69% | 1016 hPa | 0.51 mm | - | 66 W/m² | - |
| 1777757760 | 16.67° C | 70% | 1016.1 hPa | 0.51 mm | - | 63 W/m² | - |
| 1777756860 | 17.22° C | 67% | 1016.3 hPa | 0 mm | - | 59 W/m² | - |
| 1777756503 | 17.22° C | 65% | 1016.7 hPa | 0 mm | - | 58 W/m² | - |
| 1777755956 | 17.22° C | 65% | 1016.5 hPa | 0 mm | - | 56 W/m² | - |
| 1777755057 | 16.67° C | 66% | 1016.6 hPa | 0 mm | - | 55 W/m² | - |
| 1777754156 | 16.67° C | 70% | 1016.7 hPa | 0 mm | - | 53 W/m² | - |
| 1777753260 | 16.11° C | 70% | 1016.9 hPa | 0 mm | - | 51 W/m² | - |
| 1777752902 | 16.11° C | 69% | 1017.2 hPa | 0 mm | - | 50 W/m² | - |
| 1777752355 | 16.11° C | 71% | 1017 hPa | 0 mm | - | 48 W/m² | - |
| 1777752002 | 16.11° C | 69% | 1017.3 hPa | 0 mm | - | 47 W/m² | - |
| 1777751869 | 15.56° C | 72% | 1017.1 hPa | 0 mm | - | 46 W/m² | - |
| 1777750552 | 15.56° C | 72% | 1017.2 hPa | 0 mm | - | 44 W/m² | - |
| 1777749652 | 15° C | 76% | 1017.2 hPa | 0 mm | - | 41 W/m² | - |
| 1777749302 | 14.44° C | 79% | 1017.6 hPa | 0 mm | - | 40 W/m² | - |
* Rain latest hour (hover to see other rain measurements)
** Current wind speed in m/s (hover to see current wind gust speed)